Time;durP1;ratioP1;P1;durP2;ratioP2;P2;SDS_P1;SDS_P2;PMS_P1;PMS_P2;Temp;Humidity;BMP_temperature;BMP_pressure;BME280_temperature;BME280_humidity;BME280_pressure;Samples;Min_cycle;Max_cycle;Signal;HPM_P1;HPM_P2
2023/03/04 00:01:46;;;;;;;13.85;2.33;;;6.10;99.90;;;;;;5107948;27;20091;-77
2023/03/04 00:04:12;;;;;;;9.95;1.55;;;6.10;99.90;;;;;;5091928;27;20047;-76
2023/03/04 00:06:38;;;;;;;19.45;2.00;;;6.10;99.90;;;;;;5092269;27;20039;-77
2023/03/04 00:09:04;;;;;;;7.40;1.80;;;7.00;99.90;;;;;;5107748;27;20035;-77
2023/03/04 00:11:31;;;;;;;14.95;1.40;;;6.10;99.90;;;;;;5092565;27;20526;-77
2023/03/04 00:13:57;;;;;;;17.25;2.17;;;6.00;99.90;;;;;;5124838;27;20047;-77
2023/03/04 00:16:26;;;;;;;13.25;1.30;;;6.30;99.90;;;;;;5109423;28;20539;-77
2023/03/04 00:18:52;;;;;;;24.60;1.50;;;5.10;99.90;;;;;;5090807;27;20046;-77
2023/03/04 00:21:18;;;;;;;13.43;1.13;;;6.10;99.90;;;;;;5108936;28;20051;-76
2023/03/04 00:23:44;;;;;;;13.40;0.95;;;6.10;99.90;;;;;;5108734;28;20066;-76
2023/03/04 00:26:10;;;;;;;15.10;1.38;;;6.00;99.90;;;;;;5107924;27;20079;-76
2023/03/04 00:28:35;;;;;;;9.60;1.40;;;6.10;99.90;;;;;;5092572;28;20152;-77
2023/03/04 00:31:01;;;;;;;14.48;1.60;;;6.00;99.90;;;;;;5107282;28;20055;-76
2023/03/04 00:33:27;;;;;;;18.55;1.88;;;6.10;99.90;;;;;;5109886;28;20042;-76
2023/03/04 00:35:53;;;;;;;17.88;1.60;;;6.10;99.90;;;;;;5091058;28;20468;-77
2023/03/04 00:38:18;;;;;;;18.45;2.80;;;6.10;99.90;;;;;;5109344;28;20043;-76
2023/03/04 00:40:44;;;;;;;13.40;1.27;;;6.20;99.90;;;;;;5108883;28;20047;-76
2023/03/04 00:43:10;;;;;;;15.43;1.73;;;6.70;99.90;;;;;;5091269;28;20071;-76
2023/03/04 00:45:35;;;;;;;12.75;3.25;;;6.10;99.90;;;;;;5109480;28;20039;-77
2023/03/04 00:48:01;;;;;;;11.00;1.27;;;6.10;99.90;;;;;;5090039;28;20409;-77
2023/03/04 00:50:27;;;;;;;15.95;1.13;;;6.00;99.90;;;;;;5092173;28;20048;-76
2023/03/04 00:52:52;;;;;;;13.88;1.35;;;6.20;99.90;;;;;;5103629;28;20076;-76
2023/03/04 00:55:18;;;;;;;7.90;1.35;;;6.10;99.90;;;;;;5105497;28;20044;-76
2023/03/04 00:57:44;;;;;;;15.05;1.60;;;6.10;99.90;;;;;;5088377;28;20189;-76
2023/03/04 01:00:10;;;;;;;18.75;1.90;;;6.10;99.90;;;;;;5105322;28;20040;-76
2023/03/04 01:02:36;;;;;;;16.48;2.88;;;6.10;99.90;;;;;;5090018;28;20035;-76
2023/03/04 01:05:02;;;;;;;17.00;1.52;;;6.10;99.90;;;;;;5091831;28;20058;-76
2023/03/04 01:07:27;;;;;;;13.30;1.60;;;6.10;99.90;;;;;;5076929;28;20081;-76
2023/03/04 01:09:53;;;;;;;17.05;1.92;;;6.10;99.90;;;;;;5089880;28;20039;-77
2023/03/04 01:12:19;;;;;;;18.73;2.00;;;6.30;99.90;;;;;;5075069;28;20092;-76
2023/03/04 01:14:44;;;;;;;12.63;2.25;;;6.10;99.90;;;;;;5109838;28;20089;-77
2023/03/04 01:17:11;;;;;;;12.50;1.70;;;6.10;99.90;;;;;;5109105;28;20082;-76
2023/03/04 01:19:36;;;;;;;13.10;1.60;;;6.10;99.90;;;;;;5109267;28;20047;-76
2023/03/04 01:22:02;;;;;;;15.95;1.25;;;6.00;99.90;;;;;;5109533;28;20050;-76
2023/03/04 01:24:29;;;;;;;14.15;1.60;;;7.00;99.90;;;;;;5111428;27;20093;-76
2023/03/04 01:26:55;;;;;;;14.35;1.40;;;6.40;99.90;;;;;;5107716;28;20438;-76
2023/03/04 01:29:20;;;;;;;11.05;1.00;;;7.00;99.90;;;;;;5109160;28;20507;-76
2023/03/04 01:31:46;;;;;;;9.95;1.58;;;6.00;99.90;;;;;;5109490;28;20428;-76
2023/03/04 01:34:12;;;;;;;13.18;1.83;;;6.00;99.90;;;;;;5110000;28;20065;-76
2023/03/04 01:36:37;;;;;;;17.80;1.35;;;6.00;99.90;;;;;;5092057;28;20533;-77
2023/03/04 01:39:03;;;;;;;13.65;1.83;;;6.00;99.90;;;;;;5090706;28;20040;-77
2023/03/04 01:41:29;;;;;;;14.32;1.83;;;6.00;99.90;;;;;;5109758;28;20209;-76
2023/03/04 01:43:57;;;;;;;14.75;1.38;;;5.90;99.90;;;;;;5089762;28;20514;-77
2023/03/04 01:46:23;;;;;;;19.75;2.05;;;6.00;99.90;;;;;;5092466;28;20436;-76
2023/03/04 01:48:49;;;;;;;16.58;1.98;;;5.90;99.90;;;;;;5090489;28;20040;-76
2023/03/04 01:51:17;;;;;;;17.27;1.90;;;5.90;99.90;;;;;;5091123;28;20051;-76
2023/03/04 01:53:45;;;;;;;19.50;3.25;;;5.90;99.90;;;;;;5108103;28;20066;-76
2023/03/04 01:56:21;;;;;;;14.00;2.00;;;5.90;99.90;;;;;;5106973;28;20044;-76
2023/03/04 01:59:07;;;;;;;13.68;1.98;;;5.80;99.90;;;;;;5108954;28;20043;-76
2023/03/04 02:01:33;;;;;;;13.35;1.40;;;5.80;99.90;;;;;;5107167;28;20435;-76
2023/03/04 02:03:59;;;;;;;18.02;2.30;;;5.80;99.90;;;;;;5108244;28;20132;-76
2023/03/04 02:06:25;;;;;;;18.52;2.15;;;5.80;99.90;;;;;;5107538;28;20044;-76
2023/03/04 02:08:51;;;;;;;22.67;2.03;;;7.10;99.90;;;;;;5090307;28;20071;-76
2023/03/04 02:11:16;;;;;;;9.88;1.67;;;5.80;99.90;;;;;;5108328;28;20040;-76
2023/03/04 02:13:42;;;;;;;14.05;2.33;;;5.80;99.90;;;;;;5072306;28;20044;-78
2023/03/04 02:16:08;;;;;;;14.50;1.67;;;5.80;99.90;;;;;;5091451;28;20032;-77
2023/03/04 02:18:34;;;;;;;24.20;1.95;;;6.90;99.90;;;;;;5106447;28;20058;-77
2023/03/04 02:21:30;;;;;;;14.75;1.42;;;5.80;99.90;;;;;;5107510;28;20073;-77
2023/03/04 02:24:11;;;;;;;19.00;2.10;;;5.80;99.90;;;;;;5122411;27;20056;-77
2023/03/04 02:26:40;;;;;;;19.40;2.25;;;5.80;99.90;;;;;;5089025;28;20077;-77
2023/03/04 02:29:05;;;;;;;14.30;1.70;;;5.80;99.90;;;;;;5108100;28;20059;-77
2023/03/04 02:31:35;;;;;;;11.35;1.15;;;6.20;99.90;;;;;;5088865;28;20059;-77
2023/03/04 02:34:10;;;;;;;19.50;1.55;;;5.80;99.90;;;;;;5107240;28;20141;-77
2023/03/04 02:36:36;;;;;;;18.25;3.05;;;5.80;99.90;;;;;;5107815;28;20119;-78
2023/03/04 02:39:11;;;;;;;18.63;1.55;;;5.80;99.90;;;;;;5106146;28;20051;-77
2023/03/04 02:41:36;;;;;;;13.93;1.65;;;5.80;99.90;;;;;;5108175;28;20796;-76
2023/03/04 02:44:03;;;;;;;9.35;1.25;;;5.80;99.90;;;;;;5105829;28;20044;-77
2023/03/04 02:46:28;;;;;;;11.48;1.73;;;5.80;99.90;;;;;;5090320;28;20040;-76
2023/03/04 02:48:54;;;;;;;26.80;2.92;;;5.80;99.90;;;;;;5106064;28;20383;-77
2023/03/04 02:51:20;;;;;;;16.58;1.50;;;5.80;99.90;;;;;;5106648;28;20089;-76
2023/03/04 02:53:46;;;;;;;11.00;1.77;;;5.80;99.90;;;;;;5090344;28;20055;-77
2023/03/04 02:56:12;;;;;;;11.75;1.42;;;7.10;99.90;;;;;;5106976;28;20135;-76
2023/03/04 02:58:39;;;;;;;18.08;1.35;;;6.00;99.90;;;;;;5107689;28;20051;-77
2023/03/04 03:01:05;;;;;;;7.35;1.42;;;5.80;99.90;;;;;;5106556;28;20043;-76
2023/03/04 03:03:31;;;;;;;10.73;1.48;;;5.80;99.90;;;;;;5109069;28;20112;-77
2023/03/04 03:05:57;;;;;;;10.98;1.90;;;5.80;99.90;;;;;;5107605;28;20428;-76
2023/03/04 03:08:23;;;;;;;14.70;1.63;;;5.80;99.90;;;;;;5089446;28;20605;-76
2023/03/04 03:10:48;;;;;;;9.63;1.67;;;5.90;99.90;;;;;;5106643;28;20044;-77
2023/03/04 03:13:14;;;;;;;14.73;1.73;;;5.80;99.90;;;;;;5105092;28;20394;-76
2023/03/04 03:15:41;;;;;;;13.25;1.63;;;5.80;99.90;;;;;;5107242;28;20049;-76
2023/03/04 03:18:09;;;;;;;8.90;1.67;;;5.80;99.90;;;;;;5088433;28;20489;-76
2023/03/04 03:20:35;;;;;;;8.88;1.00;;;5.80;99.90;;;;;;5090163;28;20036;-76
2023/03/04 03:23:01;;;;;;;15.52;1.80;;;5.80;99.90;;;;;;5105191;28;20460;-76
2023/03/04 03:25:26;;;;;;;11.88;2.53;;;5.80;99.90;;;;;;5106530;28;20134;-76
2023/03/04 03:27:52;;;;;;;14.00;2.90;;;5.80;99.90;;;;;;5106901;28;20040;-77
2023/03/04 03:30:18;;;;;;;10.27;1.20;;;5.80;99.90;;;;;;5088545;28;20062;-76
2023/03/04 03:32:44;;;;;;;10.20;1.60;;;5.80;99.90;;;;;;5106950;28;20036;-76
2023/03/04 03:35:10;;;;;;;17.15;1.48;;;5.80;99.90;;;;;;5087226;28;20096;-75
2023/03/04 03:37:35;;;;;;;13.30;1.30;;;5.90;99.90;;;;;;5089704;28;20039;-76
2023/03/04 03:40:01;;;;;;;16.55;1.60;;;5.80;99.90;;;;;;5071914;28;20090;-76
2023/03/04 03:42:27;;;;;;;6.18;0.98;;;5.50;99.90;;;;;;5107014;28;20039;-77
2023/03/04 03:44:54;;;;;;;6.40;2.08;;;5.80;99.90;;;;;;5107238;28;20039;-76
2023/03/04 03:47:20;;;;;;;9.70;1.10;;;5.80;99.90;;;;;;5088446;28;20044;-77
2023/03/04 03:49:46;;;;;;;11.60;1.27;;;5.90;99.90;;;;;;5089750;28;20050;-77
2023/03/04 03:52:12;;;;;;;8.48;1.20;;;5.80;99.90;;;;;;5087392;28;20044;-77
2023/03/04 03:54:38;;;;;;;9.20;1.40;;;5.80;99.90;;;;;;5107863;28;20131;-76
2023/03/04 03:57:03;;;;;;;9.10;1.98;;;5.80;99.90;;;;;;5105153;28;20135;-77
2023/03/04 03:59:29;;;;;;;10.38;1.50;;;5.80;99.90;;;;;;5105764;28;20303;-77
2023/03/04 04:01:55;;;;;;;10.85;1.77;;;5.80;99.90;;;;;;5088491;28;20124;-77
2023/03/04 04:04:20;;;;;;;15.30;1.70;;;5.80;99.90;;;;;;5106114;28;20061;-77
2023/03/04 04:06:46;;;;;;;9.68;2.08;;;5.80;99.90;;;;;;5106618;28;20047;-77
2023/03/04 04:09:12;;;;;;;11.32;1.05;;;6.40;99.90;;;;;;5104552;28;20399;-77
2023/03/04 04:11:37;;;;;;;11.68;1.30;;;5.80;99.90;;;;;;5089136;28;20048;-77
2023/03/04 04:14:03;;;;;;;18.98;2.35;;;5.80;99.90;;;;;;5105808;28;20051;-76
2023/03/04 04:16:29;;;;;;;11.00;1.90;;;6.80;99.90;;;;;;5105951;28;20547;-76
2023/03/04 04:18:55;;;;;;;10.68;1.05;;;5.80;99.90;;;;;;5105262;28;20039;-76
2023/03/04 04:21:20;;;;;;;6.82;0.80;;;5.80;99.90;;;;;;5104904;28;20398;-76
2023/03/04 04:23:46;;;;;;;10.32;1.20;;;5.80;99.90;;;;;;5105698;28;20039;-76
2023/03/04 04:26:12;;;;;;;5.28;0.80;;;5.80;99.90;;;;;;5105523;28;20054;-77
2023/03/04 04:28:37;;;;;;;11.85;1.23;;;6.90;99.90;;;;;;5089336;28;20483;-77
2023/03/04 04:31:07;;;;;;;8.68;1.63;;;5.80;99.90;;;;;;5087267;28;20047;-77
2023/03/04 04:33:33;;;;;;;4.57;0.98;;;5.80;99.90;;;;;;5109377;28;20078;-77
2023/03/04 04:36:00;;;;;;;15.77;0.95;;;6.10;99.90;;;;;;5109766;28;20040;-77
2023/03/04 04:38:26;;;;;;;9.63;1.13;;;6.80;99.90;;;;;;5109090;28;20052;-77
2023/03/04 04:40:52;;;;;;;14.32;1.67;;;6.80;99.90;;;;;;5111210;28;20059;-75
2023/03/04 04:43:18;;;;;;;12.02;0.93;;;5.90;99.90;;;;;;5106476;28;20100;-77
2023/03/04 04:45:43;;;;;;;13.43;1.10;;;6.30;99.90;;;;;;5107555;28;20050;-77
2023/03/04 04:48:09;;;;;;;11.13;1.30;;;5.90;99.90;;;;;;5108226;28;20329;-77
2023/03/04 04:50:35;;;;;;;7.68;0.95;;;7.40;99.90;;;;;;5093159;28;20151;-77
2023/03/04 04:53:01;;;;;;;18.95;1.60;;;5.90;99.90;;;;;;5122206;27;20504;-77
2023/03/04 04:55:27;;;;;;;7.20;0.80;;;5.90;99.90;;;;;;5130806;27;20151;-78
2023/03/04 04:57:52;;;;;;;6.38;0.80;;;6.20;99.90;;;;;;5131167;27;20050;-78
2023/03/04 05:00:19;;;;;;;7.47;0.80;;;5.90;99.90;;;;;;5129833;27;20039;-78
2023/03/04 05:02:45;;;;;;;13.35;0.80;;;5.90;99.90;;;;;;5112938;27;20049;-77
2023/03/04 05:05:10;;;;;;;5.68;1.10;;;6.40;99.90;;;;;;5129673;27;20078;-77
2023/03/04 05:07:36;;;;;;;14.60;1.20;;;5.90;99.90;;;;;;5131296;27;20366;-76
2023/03/04 05:10:03;;;;;;;5.78;0.32;;;5.90;99.90;;;;;;5129710;27;20039;-76
2023/03/04 05:12:28;;;;;;;8.82;0.95;;;5.90;99.90;;;;;;5112281;27;20057;-77
2023/03/04 05:14:54;;;;;;;10.43;1.23;;;5.90;99.90;;;;;;5130885;27;20039;-77
2023/03/04 05:17:20;;;;;;;6.45;0.70;;;5.90;99.90;;;;;;5129778;27;20399;-77
2023/03/04 05:19:46;;;;;;;8.65;1.13;;;5.90;99.90;;;;;;5095796;27;20104;-76
2023/03/04 05:22:12;;;;;;;8.68;1.52;;;5.70;99.90;;;;;;5093468;27;20043;-77
2023/03/04 05:24:37;;;;;;;9.18;0.82;;;6.50;99.90;;;;;;5113138;27;20053;-77
2023/03/04 05:27:03;;;;;;;12.75;1.42;;;7.30;99.90;;;;;;5129649;27;20184;-77
2023/03/04 05:29:28;;;;;;;12.18;1.80;;;7.10;99.90;;;;;;5112198;27;20131;-77
2023/03/04 05:31:54;;;;;;;6.90;0.90;;;5.90;99.90;;;;;;5130202;27;20039;-77
2023/03/04 05:34:20;;;;;;;7.00;1.15;;;6.00;99.90;;;;;;5129540;27;20075;-78
2023/03/04 05:36:48;;;;;;;16.30;1.52;;;6.00;99.90;;;;;;5112800;27;20093;-77
2023/03/04 05:39:14;;;;;;;15.45;0.93;;;6.80;99.90;;;;;;5129299;27;20039;-77
2023/03/04 05:41:39;;;;;;;11.73;1.30;;;5.90;99.90;;;;;;5130873;27;20152;-77
2023/03/04 05:44:05;;;;;;;15.90;2.40;;;5.90;99.90;;;;;;5110686;27;20051;-77
2023/03/04 05:46:31;;;;;;;14.10;1.67;;;5.90;99.90;;;;;;5130462;27;20035;-77
2023/03/04 05:48:56;;;;;;;14.50;1.70;;;5.90;99.90;;;;;;5130034;27;20043;-76
2023/03/04 05:51:22;;;;;;;22.63;1.58;;;6.60;99.90;;;;;;5111083;27;20486;-77
2023/03/04 05:53:48;;;;;;;20.30;1.98;;;5.90;99.90;;;;;;5130512;27;20071;-77
2023/03/04 05:56:17;;;;;;;16.10;1.15;;;5.90;99.90;;;;;;5110106;27;20078;-77
2023/03/04 05:58:43;;;;;;;8.05;1.15;;;5.90;99.90;;;;;;5112275;27;20047;-77
2023/03/04 06:01:10;;;;;;;15.70;1.73;;;7.00;99.90;;;;;;5092914;27;20039;-76
2023/03/04 06:03:36;;;;;;;11.45;1.17;;;5.90;99.90;;;;;;5129978;27;20501;-76
2023/03/04 06:06:02;;;;;;;11.20;1.48;;;5.90;99.90;;;;;;5129488;27;20040;-77
2023/03/04 06:08:28;;;;;;;8.38;1.35;;;5.90;99.90;;;;;;5110831;27;20094;-76
2023/03/04 06:10:55;;;;;;;15.65;1.25;;;7.10;99.90;;;;;;5094901;27;20505;-77
2023/03/04 06:13:21;;;;;;;8.70;0.80;;;6.90;99.90;;;;;;5092446;27;20042;-76
2023/03/04 06:15:52;;;;;;;11.63;0.70;;;5.90;99.90;;;;;;5130856;27;20031;-77
2023/03/04 06:18:17;;;;;;;9.60;0.80;;;5.90;99.90;;;;;;5128301;27;20085;-77
2023/03/04 06:20:44;;;;;;;8.82;1.10;;;6.40;99.90;;;;;;5077262;27;20047;-77
2023/03/04 06:23:10;;;;;;;13.57;1.77;;;5.90;99.90;;;;;;5093500;27;20051;-77
2023/03/04 06:25:35;;;;;;;7.82;1.15;;;5.90;99.90;;;;;;5093314;27;20046;-78
2023/03/04 06:28:01;;;;;;;5.60;0.57;;;6.00;99.90;;;;;;5111406;27;20051;-77
2023/03/04 06:30:27;;;;;;;10.23;0.70;;;6.50;99.90;;;;;;5092442;27;20047;-77
2023/03/04 06:32:53;;;;;;;9.07;1.38;;;5.90;99.90;;;;;;5111041;27;20043;-77
2023/03/04 06:35:19;;;;;;;16.02;0.90;;;5.90;99.90;;;;;;5109309;27;20035;-77
2023/03/04 06:37:44;;;;;;;13.05;1.20;;;5.90;99.90;;;;;;5094214;27;20078;-77
2023/03/04 06:40:11;;;;;;;11.63;1.40;;;6.30;99.90;;;;;;5076063;27;20039;-77
2023/03/04 06:42:37;;;;;;;10.85;1.52;;;5.90;99.90;;;;;;5128664;27;20039;-76
2023/03/04 06:45:03;;;;;;;11.73;1.40;;;6.20;99.90;;;;;;5094123;27;20131;-77
2023/03/04 06:47:29;;;;;;;14.57;1.80;;;5.90;99.90;;;;;;5109080;27;20482;-77
2023/03/04 06:49:55;;;;;;;18.25;1.23;;;5.90;99.90;;;;;;5077148;27;20047;-77
2023/03/04 06:52:21;;;;;;;13.25;1.70;;;5.90;99.90;;;;;;5108913;27;20477;-77
2023/03/04 06:54:47;;;;;;;12.15;1.63;;;5.90;99.90;;;;;;5129445;27;20509;-77
2023/03/04 06:57:12;;;;;;;14.02;1.73;;;5.90;99.90;;;;;;5109529;27;20116;-77
2023/03/04 06:59:38;;;;;;;12.90;1.50;;;6.10;99.90;;;;;;5093126;27;20050;-77
2023/03/04 07:02:05;;;;;;;9.85;0.88;;;5.90;99.90;;;;;;5110314;27;20050;-77
2023/03/04 07:04:31;;;;;;;16.90;1.80;;;6.00;99.90;;;;;;5108816;27;20043;-77
2023/03/04 07:06:57;;;;;;;10.52;1.50;;;7.00;99.90;;;;;;5094163;27;20035;-77
2023/03/04 07:09:22;;;;;;;11.80;1.15;;;6.50;99.90;;;;;;5108310;27;20074;-77
2023/03/04 07:11:49;;;;;;;12.05;2.65;;;6.30;99.90;;;;;;5076413;27;20134;-77
2023/03/04 07:14:15;;;;;;;19.92;1.02;;;6.10;99.90;;;;;;5108763;27;20088;-77
2023/03/04 07:16:40;;;;;;;12.07;1.35;;;6.50;99.90;;;;;;5076052;27;20043;-77
2023/03/04 07:19:06;;;;;;;8.80;0.70;;;6.20;99.90;;;;;;5092905;27;20047;-77
2023/03/04 07:21:32;;;;;;;6.68;1.00;;;6.30;99.90;;;;;;5074659;27;20039;-77
2023/03/04 07:23:57;;;;;;;7.43;0.55;;;6.20;99.90;;;;;;5111284;27;20072;-77
2023/03/04 07:26:23;;;;;;;10.10;0.93;;;6.20;99.90;;;;;;5108166;27;20040;-79
2023/03/04 07:28:51;;;;;;;9.30;0.60;;;6.50;99.90;;;;;;5093141;27;20035;-76
2023/03/04 07:31:23;;;;;;;8.52;1.15;;;6.20;99.90;;;;;;5091697;27;20047;-76
2023/03/04 07:33:49;;;;;;;9.15;1.50;;;6.20;99.90;;;;;;5109942;27;20047;-76
2023/03/04 07:36:15;;;;;;;10.68;1.38;;;6.30;99.90;;;;;;5110008;27;20151;-77
2023/03/04 07:38:47;;;;;;;10.60;1.20;;;6.30;99.90;;;;;;5108053;27;20043;-76
2023/03/04 07:41:13;;;;;;;15.30;1.35;;;6.30;99.90;;;;;;5092949;27;20133;-78
2023/03/04 07:43:39;;;;;;;10.55;1.00;;;6.30;99.90;;;;;;5107916;27;20130;-77
2023/03/04 07:46:05;;;;;;;11.68;1.63;;;6.60;99.90;;;;;;5110138;27;20047;-80
2023/03/04 07:48:31;;;;;;;17.55;1.73;;;6.40;99.90;;;;;;5092028;27;20519;-79
2023/03/04 07:51:14;;;;;;;18.40;2.03;;;7.20;99.90;;;;;;5092325;27;20054;-80
2023/03/04 07:53:42;;;;;;;15.63;1.90;;;6.40;99.90;;;;;;5109637;27;20486;-78
2023/03/04 07:56:17;;;;;;;25.17;2.40;;;6.40;99.90;;;;;;5090842;27;20054;-79
2023/03/04 07:58:43;;;;;;;23.98;3.42;;;6.20;99.90;;;;;;5110355;27;20039;-79
2023/03/04 08:01:11;;;;;;;20.83;2.10;;;6.20;99.90;;;;;;5109400;27;20173;-79
2023/03/04 08:03:36;;;;;;;17.20;2.78;;;6.20;99.90;;;;;;5110190;27;20043;-79
2023/03/04 08:06:07;;;;;;;31.27;3.50;;;6.20;99.90;;;;;;5110388;27;20050;-78
2023/03/04 08:08:34;;;;;;;22.40;3.55;;;6.20;99.90;;;;;;5109928;27;20051;-80
2023/03/04 08:11:04;;;;;;;25.55;2.33;;;6.20;99.90;;;;;;5111898;27;20050;-81
2023/03/04 08:13:30;;;;;;;20.13;2.88;;;6.30;99.90;;;;;;5108254;27;20043;-78
2023/03/04 08:15:56;;;;;;;19.90;3.08;;;6.40;99.90;;;;;;5109797;27;20557;-79
2023/03/04 08:18:22;;;;;;;28.88;2.75;;;6.30;99.90;;;;;;5126044;27;20127;-81
2023/03/04 08:20:47;;;;;;;30.00;2.92;;;7.70;99.90;;;;;;5073810;27;20074;-78
2023/03/04 08:23:13;;;;;;;26.40;3.53;;;6.30;99.90;;;;;;5091912;27;20127;-78
2023/03/04 08:25:41;;;;;;;27.58;3.72;;;6.30;99.90;;;;;;5107439;28;20440;-79
2023/03/04 08:28:07;;;;;;;24.85;3.67;;;7.20;99.90;;;;;;5109238;27;20047;-79
2023/03/04 08:30:34;;;;;;;26.48;3.33;;;6.40;99.90;;;;;;5106925;28;20062;-78
2023/03/04 08:33:01;;;;;;;35.85;3.03;;;6.40;99.90;;;;;;5109766;28;20047;-79
2023/03/04 08:35:27;;;;;;;22.60;3.53;;;6.40;99.90;;;;;;5126095;28;20027;-79
2023/03/04 08:37:52;;;;;;;25.38;2.95;;;6.40;99.90;;;;;;5108471;28;20050;-79
2023/03/04 08:40:18;;;;;;;26.42;3.22;;;6.40;99.90;;;;;;5108501;28;20043;-79
2023/03/04 08:42:44;;;;;;;23.73;3.30;;;6.50;99.90;;;;;;5107402;28;20043;-78
2023/03/04 08:45:10;;;;;;;24.75;3.70;;;6.50;99.90;;;;;;5109075;28;20047;-78
2023/03/04 08:47:36;;;;;;;32.25;3.38;;;6.50;99.90;;;;;;5125707;28;20467;-78
2023/03/04 08:50:03;;;;;;;27.15;2.67;;;6.50;99.90;;;;;;5109250;28;20058;-79
2023/03/04 08:52:29;;;;;;;27.95;3.38;;;6.60;99.90;;;;;;5125556;28;20047;-79
2023/03/04 08:54:56;;;;;;;18.17;2.42;;;6.60;99.90;;;;;;5108581;28;20112;-80
2023/03/04 08:57:22;;;;;;;19.60;2.45;;;6.60;99.90;;;;;;5091562;28;20062;-79
2023/03/04 08:59:47;;;;;;;14.50;2.63;;;6.70;99.90;;;;;;5107691;28;20474;-79
2023/03/04 09:02:13;;;;;;;16.70;2.33;;;7.00;99.90;;;;;;5092113;28;20047;-79
2023/03/04 09:04:39;;;;;;;18.80;1.85;;;6.70;99.90;;;;;;5106725;28;20375;-79
2023/03/04 09:07:05;;;;;;;15.93;2.28;;;7.60;99.90;;;;;;5127549;28;20091;-79
2023/03/04 09:09:31;;;;;;;15.27;1.70;;;6.70;99.90;;;;;;5106913;28;20490;-79
2023/03/04 09:11:57;;;;;;;10.35;1.85;;;6.70;99.90;;;;;;5091376;28;20035;-79
2023/03/04 09:14:22;;;;;;;7.05;1.50;;;6.60;99.90;;;;;;5090562;28;20054;-79
2023/03/04 09:16:48;;;;;;;17.40;2.45;;;6.70;99.90;;;;;;5107268;28;20039;-81
2023/03/04 09:19:14;;;;;;;15.10;2.17;;;6.70;99.90;;;;;;5091547;28;20043;-80
2023/03/04 09:21:39;;;;;;;14.25;1.75;;;6.70;99.90;;;;;;5106977;28;20039;-79
2023/03/04 09:24:05;;;;;;;17.75;1.42;;;6.70;99.90;;;;;;5092127;28;20039;-79
2023/03/04 09:26:31;;;;;;;7.80;0.98;;;6.70;99.90;;;;;;5125244;28;20031;-79
2023/03/04 09:28:59;;;;;;;11.82;1.02;;;6.70;99.90;;;;;;5126963;28;20398;-79
2023/03/04 09:31:26;;;;;;;12.20;1.17;;;7.80;99.90;;;;;;5107457;27;20051;-79
2023/03/04 09:33:53;;;;;;;12.45;1.35;;;6.80;99.90;;;;;;5110624;27;20176;-78
2023/03/04 09:36:19;;;;;;;10.40;1.08;;;6.80;99.90;;;;;;5130797;27;20047;-79
2023/03/04 09:38:45;;;;;;;12.02;1.30;;;6.80;99.90;;;;;;5128712;27;20537;-78
2023/03/04 09:41:49;;;;;;;10.27;1.10;;;6.90;99.90;;;;;;5112216;27;20043;-78
2023/03/04 09:44:28;;;;;;;20.05;2.63;;;8.10;99.90;;;;;;5110755;27;20139;-78
2023/03/04 09:47:02;;;;;;;7.38;1.30;;;7.10;99.90;;;;;;5110866;27;20039;-78
2023/03/04 09:49:29;;;;;;;10.45;2.05;;;7.20;99.90;;;;;;5112561;27;20583;-78
2023/03/04 09:52:17;;;;;;;13.63;1.77;;;7.30;99.90;;;;;;5092355;27;20086;-78
2023/03/04 09:55:24;;;;;;;9.40;1.52;;;7.40;99.90;;;;;;5111354;27;20600;-78
2023/03/04 09:57:59;;;;;;;5.13;1.00;;;7.40;99.90;;;;;;5112407;27;20047;-79
2023/03/04 10:00:40;;;;;;;10.40;1.30;;;7.40;99.90;;;;;;5128637;27;20132;-79
2023/03/04 10:03:12;;;;;;;15.43;2.28;;;7.40;99.90;;;;;;5111712;27;20415;-79
2023/03/04 10:05:58;;;;;;;13.57;2.13;;;7.30;99.90;;;;;;5093506;27;20051;-78
2023/03/04 10:08:34;;;;;;;16.35;2.10;;;7.20;99.90;;;;;;5092892;27;20292;-78
2023/03/04 10:11:02;;;;;;;23.33;2.80;;;7.10;99.90;;;;;;5111717;27;20406;-78
2023/03/04 10:13:46;;;;;;;18.75;2.17;;;7.10;99.90;;;;;;5109254;27;20121;-79
2023/03/04 10:16:17;;;;;;;18.80;2.95;;;7.20;99.90;;;;;;5111151;27;20050;-79
2023/03/04 10:19:09;;;;;;;18.63;2.15;;;7.80;99.90;;;;;;5110556;27;20048;-79
2023/03/04 10:21:40;;;;;;;25.90;4.20;;;7.30;99.90;;;;;;5109478;27;20102;-79
2023/03/04 10:24:18;;;;;;;19.88;2.67;;;7.30;99.90;;;;;;5111853;27;20413;-79
2023/03/04 10:26:48;;;;;;;12.90;2.45;;;7.40;99.90;;;;;;5110129;27;20371;-79
2023/03/04 10:29:19;;;;;;;24.98;2.75;;;7.40;99.90;;;;;;5110648;27;20078;-79
2023/03/04 10:31:46;;;;;;;17.00;2.95;;;7.40;99.90;;;;;;5093648;27;20031;-79
2023/03/04 10:34:13;;;;;;;18.67;2.20;;;7.70;99.90;;;;;;5109279;27;20039;-78
2023/03/04 10:36:46;;;;;;;14.38;1.95;;;7.40;99.90;;;;;;5110984;27;20039;-79
2023/03/04 10:39:28;;;;;;;17.05;2.63;;;8.10;99.90;;;;;;5091911;27;20043;-80
2023/03/04 10:42:06;;;;;;;23.58;3.15;;;7.30;99.90;;;;;;5093633;27;20134;-80
2023/03/04 10:44:33;;;;;;;22.25;2.65;;;7.20;99.90;;;;;;5109692;27;20337;-79
2023/03/04 10:46:59;;;;;;;23.58;3.10;;;7.40;99.90;;;;;;5108935;27;20074;-80
2023/03/04 10:49:27;;;;;;;17.58;2.60;;;8.70;99.90;;;;;;5094134;27;20039;-80
2023/03/04 10:52:19;;;;;;;20.40;2.58;;;7.50;99.90;;;;;;5108235;27;20102;-80
2023/03/04 10:54:51;;;;;;;19.67;3.05;;;7.50;99.90;;;;;;5093151;27;20047;-79
2023/03/04 10:57:22;;;;;;;7.35;1.70;;;7.50;99.90;;;;;;5092768;27;20082;-80
2023/03/04 10:59:54;;;;;;;17.10;2.15;;;7.40;99.90;;;;;;5091898;27;20495;-81
2023/03/04 11:02:22;;;;;;;13.40;1.83;;;7.40;99.90;;;;;;5110644;27;20493;-79
2023/03/04 11:04:52;;;;;;;14.43;2.58;;;7.40;99.90;;;;;;5091755;27;20108;-80
2023/03/04 11:07:19;;;;;;;18.38;2.92;;;7.80;99.90;;;;;;5093250;27;20045;-79
2023/03/04 11:09:45;;;;;;;14.00;2.00;;;7.30;99.90;;;;;;5075116;27;20088;-79
2023/03/04 11:12:14;;;;;;;11.85;2.33;;;7.50;99.90;;;;;;5092522;27;20047;-79
2023/03/04 11:14:48;;;;;;;21.33;2.65;;;8.50;99.90;;;;;;5110252;27;20068;-78
2023/03/04 11:17:19;;;;;;;20.25;2.65;;;7.40;99.90;;;;;;5108817;27;20043;-78
2023/03/04 11:19:52;;;;;;;26.48;3.53;;;7.40;99.90;;;;;;5110212;27;20035;-79
2023/03/04 11:22:22;;;;;;;21.88;2.65;;;7.60;99.90;;;;;;5126709;27;20047;-79
2023/03/04 11:25:02;;;;;;;15.50;2.13;;;7.80;99.90;;;;;;5109678;27;20047;-78
2023/03/04 11:27:50;;;;;;;12.93;1.95;;;8.80;99.90;;;;;;5127933;27;20378;-78
2023/03/04 11:30:39;;;;;;;15.50;2.17;;;7.70;99.90;;;;;;5107714;27;20054;-78
2023/03/04 11:33:46;;;;;;;17.67;2.10;;;7.70;99.90;;;;;;5109461;27;20043;-78
2023/03/04 11:36:30;;;;;;;13.85;2.15;;;7.70;99.90;;;;;;5093373;27;20047;-79
2023/03/04 11:38:57;;;;;;;15.35;2.25;;;7.50;99.90;;;;;;5107189;27;20461;-82
2023/03/04 11:41:43;;;;;;;12.73;2.20;;;7.40;99.90;;;;;;5093312;27;20041;-78
2023/03/04 11:44:11;;;;;;;23.90;2.42;;;7.30;99.90;;;;;;5127035;27;20039;-83
2023/03/04 11:46:45;;;;;;;22.08;2.25;;;7.50;99.90;;;;;;5091223;27;20042;-80
2023/03/04 11:49:32;;;;;;;13.15;2.30;;;7.80;99.90;;;;;;5109955;27;20050;-80
2023/03/04 11:52:23;;;;;;;12.15;2.30;;;8.10;99.90;;;;;;5103412;28;20051;-79
2023/03/04 11:55:01;;;;;;;20.63;2.35;;;8.20;99.90;;;;;;5077811;28;20077;-81
2023/03/04 11:57:56;;;;;;;17.58;2.33;;;8.30;99.90;;;;;;5106107;28;20040;-81
2023/03/04 12:00:34;;;;;;;15.68;1.83;;;7.90;99.90;;;;;;5104056;28;20482;-79
2023/03/04 12:03:19;;;;;;;18.40;2.63;;;8.00;99.90;;;;;;5107367;28;20079;-79
2023/03/04 12:06:13;;;;;;;18.55;2.38;;;8.00;99.90;;;;;;5106544;28;20040;-79
2023/03/04 12:08:50;;;;;;;18.80;2.10;;;8.10;99.90;;;;;;5106060;28;20050;-79
2023/03/04 12:11:53;;;;;;;16.13;2.88;;;8.20;99.90;;;;;;5106347;28;20104;-80
2023/03/04 12:14:29;;;;;;;19.30;2.55;;;8.30;99.90;;;;;;5106923;28;20054;-80
2023/03/04 12:17:12;;;;;;;14.02;1.90;;;8.40;99.90;;;;;;5104626;28;20436;-82
2023/03/04 12:19:57;;;;;;;16.55;3.03;;;8.50;99.90;;;;;;5106050;28;20044;-81
2023/03/04 12:22:58;;;;;;;15.18;2.20;;;8.30;99.90;;;;;;5087311;28;20040;-82
2023/03/04 12:25:45;;;;;;;12.18;2.33;;;8.20;99.90;;;;;;5101210;28;20451;-79
2023/03/04 12:28:51;;;;;;;22.15;3.28;;;8.20;99.90;;;;;;5109365;27;20406;-78
2023/03/04 12:31:36;;;;;;;17.23;2.28;;;7.60;99.90;;;;;;5087304;28;20128;-79
2023/03/04 12:34:35;;;;;;;11.32;1.33;;;8.00;99.90;;;;;;5105398;28;20083;-80
2023/03/04 12:37:10;;;;;;;11.35;1.85;;;7.80;99.90;;;;;;5105431;28;20126;-81
2023/03/04 12:39:44;;;;;;;13.63;1.67;;;7.80;99.90;;;;;;5103680;28;20075;-78
2023/03/04 12:42:36;;;;;;;17.50;2.55;;;7.90;99.90;;;;;;5104946;28;20062;-79
2023/03/04 12:45:27;;;;;;;15.73;2.55;;;8.10;99.90;;;;;;5105329;28;20048;-79
2023/03/04 12:48:23;;;;;;;18.92;1.85;;;8.30;99.90;;;;;;5104989;28;20047;-79
2023/03/04 12:50:58;;;;;;;13.75;1.88;;;8.40;99.90;;;;;;5105677;28;20051;-79
2023/03/04 12:53:49;;;;;;;17.20;2.13;;;8.10;99.90;;;;;;5104884;28;20060;-78
2023/03/04 12:56:26;;;;;;;21.05;2.60;;;8.00;99.90;;;;;;5104813;28;20111;-79
2023/03/04 12:58:53;;;;;;;11.27;1.48;;;7.80;99.90;;;;;;5106853;28;20044;-79
2023/03/04 13:01:43;;;;;;;11.75;1.25;;;7.70;99.90;;;;;;5103998;28;20118;-79